Pinehurst, Idaho
Current Conditions -  °F | °C
As of 11:53 PM on Saturday 22 Nov 2014 (Local Time) from KMLP Reporting Station
Moderate Fog Moderate Fog  
Wind Chill: 17°   Ceiling: 100
Heat Index: 25°   Visibility: 0.5mi
Dew Point: 23°   Wind: 7mph
Humidity: 92%   Direction: NA
Pressure: 29.86"   Gusts: NA
Location:  47.54°N, 116.24°W
Report Text: KMLP 230753Z AUTO VRB06KT 1/2SM FZFG VV001 M04/M05 A2986 RMK AO2 SLP149 T10391050 400001044
Loading
Personal Weather Stations






























Interactive Weather Map New forecast layout! Learn more

10-Day Weather Forecast

Advertisements
Track Severe Weather on mobile